Time;durP1;ratioP1;P1;durP2;ratioP2;P2;SDS_P1;SDS_P2;PMS_P1;PMS_P2;Temp;Humidity;BMP_temperature;BMP_pressure;BME280_temperature;BME280_humidity;BME280_pressure;Samples;Min_cycle;Max_cycle;Signal;HPM_P1;HPM_P2
2023/07/18 07:23:16;;;;;;;4.15;2.05;;;;;;;-145.79;54.30;77572.28;5268673;28;20864;-68
2023/07/18 07:25:48;;;;;;;14.23;12.82;;;;;;;-145.79;54.50;77559.56;5268778;28;20026;-68
2023/07/18 07:28:19;;;;;;;4.22;2.65;;;;;;;-145.79;55.03;77546.84;5291224;28;20070;-68
2023/07/18 07:30:51;;;;;;;4.90;2.45;;;;;;;-145.79;55.12;77534.13;5226402;28;20435;-68
2023/07/18 07:33:22;;;;;;;3.90;2.42;;;;;;;-145.79;54.87;77512.94;5289753;28;20032;-69
2023/07/18 07:35:54;;;;;;;4.10;1.98;;;;;;;-145.79;55.04;77498.09;5288972;28;20419;-68
2023/07/18 07:38:25;;;;;;;3.30;2.08;;;;;;;-145.79;54.43;77500.22;5239804;28;20021;-68
2023/07/18 07:40:56;;;;;;;4.72;2.22;;;;;;;-145.79;53.91;77495.97;5247043;28;20035;-68
2023/07/18 07:43:28;;;;;;;6.03;2.13;;;;;;;-145.79;53.86;77479.03;5277478;28;20029;-68
2023/07/18 07:45:59;;;;;;;4.45;1.67;;;;;;;-145.79;53.82;77462.06;5284072;28;20078;-68
2023/07/18 07:48:31;;;;;;;4.03;2.00;;;;;;;-145.79;52.96;77462.06;5271744;28;20026;-70
2023/07/18 07:51:03;;;;;;;4.40;1.92;;;;;;;-145.79;52.24;77442.97;5273022;28;20037;-68
2023/07/18 07:53:35;;;;;;;3.00;1.90;;;;;;;-145.79;52.37;77436.63;5281390;28;20378;-69
2023/07/18 07:56:06;;;;;;;3.78;1.80;;;;;;;-145.79;51.59;77428.16;5298405;28;20032;-69
2023/07/18 07:58:37;;;;;;;5.70;2.30;;;;;;;-145.79;52.00;77415.44;5245321;28;20056;-69
2023/07/18 08:01:10;;;;;;;2.75;1.75;;;;;;;-145.79;50.35;77415.44;5242407;28;20338;-69
2023/07/18 08:03:41;;;;;;;5.05;1.40;;;;;;;-145.79;49.51;77404.84;5277056;28;20109;-68
2023/07/18 08:06:13;;;;;;;3.05;1.50;;;;;;;-145.79;49.62;77396.34;5290949;28;20451;-68
2023/07/18 08:08:44;;;;;;;4.68;1.98;;;;;;;-145.79;49.14;77381.50;5300407;28;20100;-68
2023/07/18 08:11:15;;;;;;;2.30;1.17;;;;;;;-145.79;48.43;77377.28;5270011;28;20057;-68
2023/07/18 08:13:47;;;;;;;1.88;1.30;;;;;;;-145.79;48.93;77370.91;5234328;28;20030;-68
2023/07/18 08:16:18;;;;;;;1.45;1.10;;;;;;;-145.79;47.62;77373.03;5234879;28;20024;-68
2023/07/18 08:18:49;;;;;;;2.03;1.30;;;;;;;-145.79;47.33;77364.56;5286105;28;20028;-68
2023/07/18 08:21:21;;;;;;;3.53;2.25;;;;;;;-145.79;47.96;77356.06;5262045;28;20575;-68
2023/07/18 08:23:52;;;;;;;2.00;1.15;;;;;;;-145.79;46.87;77375.16;5296275;28;20030;-68
2023/07/18 08:26:24;;;;;;;3.20;0.90;;;;;;;-145.79;46.27;77358.19;5306535;28;20015;-69
2023/07/18 08:28:55;;;;;;;1.60;1.00;;;;;;;-145.79;46.75;77347.59;5250368;28;20035;-68
2023/07/18 08:31:26;;;;;;;1.45;0.93;;;;;;;-145.79;45.93;77339.13;5263025;28;20024;-68
2023/07/18 08:33:58;;;;;;;2.05;1.10;;;;;;;-145.79;45.37;77330.66;5259055;28;20171;-68
2023/07/18 08:36:31;;;;;;;2.70;1.08;;;;;;;-145.79;45.31;77328.53;5274859;28;20027;-67
2023/07/18 08:39:03;;;;;;;2.08;0.98;;;;;;;-145.79;44.65;77313.69;5278630;28;20053;-68
2023/07/18 08:41:34;;;;;;;2.40;1.45;;;;;;;-145.79;45.33;77300.97;5292115;28;20106;-69
2023/07/18 08:44:07;;;;;;;3.45;1.40;;;;;;;-145.79;45.62;77288.25;5282772;28;20612;-72
2023/07/18 08:46:42;;;;;;;2.20;1.00;;;;;;;-145.79;45.06;77279.78;5253646;28;20107;-68
2023/07/18 08:49:16;;;;;;;2.28;1.02;;;;;;;-145.79;44.98;77271.28;5248880;28;20021;-69
2023/07/18 08:51:48;;;;;;;1.80;1.00;;;;;;;-145.79;44.47;77258.56;5221589;28;20068;-69
2023/07/18 08:54:19;;;;;;;1.20;1.10;;;;;;;-145.79;43.23;77275.53;5234013;28;20079;-70
2023/07/18 08:56:51;;;;;;;3.67;1.15;;;;;;;-145.79;44.65;77254.34;5223395;28;20034;-69
2023/07/18 08:59:22;;;;;;;2.08;0.98;;;;;;;-145.79;43.94;77245.84;5221591;28;20026;-70
2023/07/18 09:01:54;;;;;;;2.72;1.02;;;;;;;-145.79;43.93;77224.66;5229286;28;20362;-69
2023/07/18 09:04:25;;;;;;;1.83;0.98;;;;;;;-145.79;43.59;77218.31;5257770;28;20035;-69
2023/07/18 09:07:00;;;;;;;4.47;1.88;;;;;;;-145.79;43.36;77199.22;5275524;28;20413;-69
2023/07/18 09:09:32;;;;;;;4.13;2.65;;;;;;;-145.79;43.24;77195.00;5271652;28;20336;-70
2023/07/18 09:12:04;;;;;;;2.92;1.00;;;;;;;-145.79;43.20;77197.09;5274439;28;20078;-70
2023/07/18 09:14:36;;;;;;;2.15;1.20;;;;;;;-145.79;42.95;77203.47;5277530;28;20037;-70
2023/07/18 09:17:08;;;;;;;2.25;1.00;;;;;;;-145.79;43.77;77178.03;5269978;28;20029;-70
2023/07/18 09:19:44;;;;;;;2.03;0.75;;;;;;;-145.79;41.80;77165.31;5275530;28;20090;-69
2023/07/18 09:22:19;;;;;;;3.72;0.88;;;;;;;-145.79;41.70;77163.19;5291445;28;20082;-70
2023/07/18 09:24:50;;;;;;;1.45;0.90;;;;;;;-145.79;41.63;77161.06;5224032;28;20022;-69
2023/07/18 09:27:22;;;;;;;16.50;14.75;;;;;;;-145.79;41.93;77156.84;5275235;28;20090;-71
2023/07/18 09:29:54;;;;;;;1.55;0.90;;;;;;;-145.79;41.34;77178.03;5276044;28;20025;-71
2023/07/18 09:32:26;;;;;;;1.48;0.90;;;;;;;-145.79;41.48;77167.44;5305447;28;20033;-69
2023/07/18 09:34:59;;;;;;;2.22;1.00;;;;;;;-145.79;42.20;77142.00;5267913;28;20036;-71
2023/07/18 09:37:42;;;;;;;2.08;1.10;;;;;;;-145.79;42.23;77116.56;5222741;28;20076;-70
2023/07/18 09:40:16;;;;;;;3.13;1.10;;;;;;;-145.79;41.65;77101.72;5228086;28;20393;-69
2023/07/18 09:42:49;;;;;;;2.35;0.85;;;;;;;-145.79;41.29;77097.50;5221081;28;20065;-69
2023/07/18 09:45:21;;;;;;;2.03;0.90;;;;;;;-145.79;41.11;77093.25;5224899;28;20033;-69
2023/07/18 09:47:53;;;;;;;2.60;1.30;;;;;;;-145.79;41.23;77108.09;5267061;28;20046;-70
2023/07/18 09:50:26;;;;;;;2.50;1.20;;;;;;;-145.79;41.62;77118.69;5233549;28;20051;-68
2023/07/18 09:53:01;;;;;;;1.65;1.15;;;;;;;-145.79;41.50;77125.03;5272728;28;20059;-70
2023/07/18 09:55:34;;;;;;;3.20;1.20;;;;;;;-145.79;41.73;77116.56;5238577;28;20036;-70
2023/07/18 09:58:06;;;;;;;2.78;1.17;;;;;;;-145.79;41.86;77118.69;5261287;28;20032;-70
2023/07/18 10:00:41;;;;;;;2.53;1.25;;;;;;;-145.79;42.04;77101.72;5226019;28;20022;-69
2023/07/18 10:03:14;;;;;;;1.70;1.02;;;;;;;-145.79;41.66;77072.06;5251546;28;20125;-70
2023/07/18 10:05:45;;;;;;;2.42;1.27;;;;;;;-145.79;41.56;77069.94;5286252;28;20015;-70
2023/07/18 10:08:17;;;;;;;1.88;1.00;;;;;;;-145.79;42.01;77063.59;5289879;28;20030;-70
2023/07/18 10:11:04;;;;;;;2.30;0.90;;;;;;;-145.79;41.54;77055.09;5278637;28;20033;-70
2023/07/18 10:14:02;;;;;;;3.17;1.30;;;;;;;-145.79;41.90;77055.09;5231509;28;20030;-70
2023/07/18 10:16:41;;;;;;;2.88;0.88;;;;;;;-145.79;41.85;77044.50;5236099;28;20488;-70
2023/07/18 10:19:18;;;;;;;1.85;0.90;;;;;;;-145.79;41.65;77040.25;5273935;28;20034;-69
2023/07/18 10:21:53;;;;;;;1.33;0.90;;;;;;;-145.79;41.57;77023.31;5278850;28;20041;-68
2023/07/18 10:24:28;;;;;;;4.65;1.10;;;;;;;-145.79;41.10;77023.31;5267684;28;20083;-71
2023/07/18 10:27:09;;;;;;;2.85;1.05;;;;;;;-145.79;41.37;77016.94;5290489;28;20021;-68
2023/07/18 10:29:41;;;;;;;2.60;0.90;;;;;;;-145.79;41.14;77027.56;5289223;28;20548;-69
2023/07/18 10:32:12;;;;;;;2.15;0.88;;;;;;;-145.79;40.98;77033.91;5277685;28;20029;-70
2023/07/18 10:34:52;;;;;;;1.63;0.82;;;;;;;-145.79;41.60;77025.44;5220271;28;20061;-70
2023/07/18 10:37:26;;;;;;;1.85;0.90;;;;;;;-145.79;41.71;77025.44;5216897;28;20106;-70
2023/07/18 10:39:58;;;;;;;1.83;1.10;;;;;;;-145.79;41.26;77008.47;5269344;28;20498;-71
2023/07/18 10:42:31;;;;;;;0.95;0.80;;;;;;;-145.79;41.37;77002.13;5270331;28;20040;-70
2023/07/18 10:45:06;;;;;;;2.40;1.33;;;;;;;-145.79;41.51;76983.03;5269639;28;20027;-70
2023/07/18 10:47:38;;;;;;;4.45;0.90;;;;;;;-145.79;41.08;76974.56;5290195;28;20470;-68
2023/07/18 10:50:09;;;;;;;10.75;9.80;;;;;;;-145.79;41.21;76957.59;5241629;28;20110;-69
2023/07/18 10:52:41;;;;;;;2.45;1.20;;;;;;;-145.79;40.48;76970.31;5273785;28;20038;-69
2023/07/18 10:55:15;;;;;;;2.70;1.17;;;;;;;-145.79;41.20;76974.56;5240958;28;20388;-69
2023/07/18 10:57:46;;;;;;;2.15;0.98;;;;;;;-145.79;40.92;76970.31;5239723;28;20027;-71
2023/07/18 11:00:18;;;;;;;2.85;1.00;;;;;;;-145.79;40.41;76966.09;5241954;28;20416;-70
2023/07/18 11:02:50;;;;;;;1.40;1.10;;;;;;;-145.79;40.64;76947.00;5254991;28;20027;-72
2023/07/18 11:05:24;;;;;;;2.55;1.05;;;;;;;-145.79;40.45;76944.91;5289292;28;20032;-71
2023/07/18 11:07:56;;;;;;;3.17;1.20;;;;;;;-145.79;40.39;76923.69;5240769;28;20098;-70
2023/07/18 11:10:31;;;;;;;2.08;1.00;;;;;;;-145.79;40.17;76923.69;5288599;28;20100;-71
2023/07/18 11:13:04;;;;;;;2.10;0.85;;;;;;;-145.79;40.02;76923.69;5223094;28;20044;-71
2023/07/18 11:15:36;;;;;;;3.30;0.93;;;;;;;-145.79;39.52;76921.59;5275341;28;20056;-71
2023/07/18 11:18:09;;;;;;;2.53;1.58;;;;;;;-145.79;39.84;76904.63;5269580;28;20040;-71
2023/07/18 11:20:40;;;;;;;3.67;1.33;;;;;;;-145.79;39.61;76944.91;5273876;28;20112;-72
2023/07/18 11:23:12;;;;;;;2.58;1.35;;;;;;;-145.79;40.20;76932.19;5251244;28;20560;-71
2023/07/18 11:25:43;;;;;;;1.75;1.08;;;;;;;-145.79;40.39;76898.25;5263171;28;20017;-71
2023/07/18 11:28:15;;;;;;;2.55;0.85;;;;;;;-145.79;40.15;76881.31;5248987;28;20041;-69
2023/07/18 11:30:47;;;;;;;3.47;1.67;;;;;;;-145.79;39.58;76874.94;5260680;28;20023;-69
2023/07/18 11:33:19;;;;;;;4.65;1.10;;;;;;;-145.79;38.96;76872.84;5268727;28;20034;-69
2023/07/18 11:35:50;;;;;;;2.15;1.13;;;;;;;-145.79;38.95;76855.88;5265558;28;20043;-72
2023/07/18 11:38:24;;;;;;;5.20;1.10;;;;;;;-145.79;39.26;76851.63;5271644;28;20181;-71
2023/07/18 11:40:55;;;;;;;2.05;0.90;;;;;;;-145.79;39.21;76826.22;5212482;28;20056;-72
2023/07/18 11:43:28;;;;;;;3.53;1.02;;;;;;;-145.79;38.94;76798.66;5229725;28;20033;-71
2023/07/18 11:46:00;;;;;;;2.22;1.13;;;;;;;-145.79;38.38;76785.94;5212526;28;20078;-69
2023/07/18 11:48:33;;;;;;;3.13;1.00;;;;;;;-145.79;38.27;76815.63;5221649;28;20488;-71
2023/07/18 11:51:04;;;;;;;1.38;1.05;;;;;;;-145.79;38.44;76809.25;5211445;28;20041;-69
2023/07/18 11:53:36;;;;;;;2.63;1.05;;;;;;;-145.79;38.32;76781.69;5285326;28;20016;-68
2023/07/18 11:56:07;;;;;;;1.50;0.75;;;;;;;-145.79;36.89;76779.59;5282862;28;20055;-69
2023/07/18 11:58:38;;;;;;;1.00;0.90;;;;;;;-145.79;37.11;76758.38;5210346;28;20018;-69
2023/07/18 12:01:10;;;;;;;2.53;1.23;;;;;;;-145.79;36.94;76781.69;5271425;28;20558;-69
2023/07/18 12:03:41;;;;;;;1.00;0.80;;;;;;;-145.79;37.17;76762.63;5273491;28;20032;-70
2023/07/18 12:06:12;;;;;;;2.17;1.08;;;;;;;-145.79;37.00;76735.06;5287876;28;20128;-70
2023/07/18 12:08:44;;;;;;;1.55;0.88;;;;;;;-145.79;36.32;76718.13;5280207;28;20027;-70
2023/07/18 12:11:16;;;;;;;1.02;0.80;;;;;;;-145.79;36.68;76713.88;5276360;28;20032;-70
2023/07/18 12:13:47;;;;;;;4.72;1.33;;;;;;;-145.79;36.04;76713.88;5285494;28;20396;-70
2023/07/18 12:16:19;;;;;;;2.83;1.38;;;;;;;-145.79;35.84;76711.75;5275740;28;20032;-70
2023/07/18 12:18:50;;;;;;;1.08;0.82;;;;;;;-145.79;35.23;76699.06;5284318;28;20055;-71
2023/07/18 12:21:21;;;;;;;3.45;0.90;;;;;;;-145.79;35.39;76684.22;5274613;28;20053;-70
2023/07/18 12:23:53;;;;;;;1.60;1.02;;;;;;;-145.79;36.31;76675.75;5282607;28;20491;-70
2023/07/18 12:26:24;;;;;;;1.23;0.70;;;;;;;-145.79;35.93;76671.50;5292386;28;20351;-71
2023/07/18 12:28:56;;;;;;;2.50;1.00;;;;;;;-145.79;35.81;76650.31;5248314;28;20018;-70
2023/07/18 12:31:27;;;;;;;1.98;1.10;;;;;;;-145.79;35.29;76646.06;5278119;28;20505;-71
2023/07/18 12:33:58;;;;;;;2.25;1.00;;;;;;;-145.79;34.67;76639.72;5270095;28;20023;-71
2023/07/18 12:36:29;;;;;;;5.10;4.60;;;;;;;-145.79;34.39;76639.72;5274818;28;20109;-72
2023/07/18 12:39:01;;;;;;;3.60;1.30;;;;;;;-145.79;34.64;76631.22;5279170;28;20045;-72
2023/07/18 12:41:32;;;;;;;2.33;1.05;;;;;;;-145.79;34.65;76597.31;5291525;28;20074;-69
2023/07/18 12:44:04;;;;;;;1.52;0.70;;;;;;;-145.79;34.50;76607.91;5290907;28;20474;-72
2023/07/18 12:46:35;;;;;;;1.45;0.85;;;;;;;-145.79;34.05;76627.00;5260057;28;20396;-71
2023/07/18 12:49:06;;;;;;;2.22;1.10;;;;;;;-145.79;35.10;76599.44;5225156;28;20121;-70
2023/07/18 12:51:40;;;;;;;1.85;0.80;;;;;;;-145.79;33.02;76601.56;5275784;28;20389;-71
2023/07/18 12:54:11;;;;;;;2.03;1.30;;;;;;;-145.79;32.94;76586.72;5276157;28;20516;-71
2023/07/18 12:56:43;;;;;;;3.85;1.30;;;;;;;-145.79;33.91;76580.38;5290788;28;20126;-71
2023/07/18 12:59:14;;;;;;;1.45;1.25;;;;;;;-145.79;33.87;76561.28;5240560;28;20108;-71
2023/07/18 13:01:46;;;;;;;1.30;0.93;;;;;;;-145.79;33.10;76540.09;5275244;28;20038;-72
2023/07/18 13:04:17;;;;;;;2.83;1.60;;;;;;;-145.79;32.47;76508.31;5268965;28;20027;-74
2023/07/18 13:06:48;;;;;;;2.58;1.23;;;;;;;-145.79;31.33;76525.28;5254209;28;20444;-72
2023/07/18 13:09:20;;;;;;;1.25;0.88;;;;;;;-145.79;31.55;76499.84;5259471;28;20117;-71
2023/07/18 13:11:52;;;;;;;1.65;0.85;;;;;;;-145.79;32.54;76504.09;5269251;28;20540;-73
2023/07/18 13:14:24;;;;;;;1.23;0.88;;;;;;;-145.79;32.55;76508.31;5227341;28;20033;-73
2023/07/18 13:16:55;;;;;;;3.58;1.20;;;;;;;-145.79;32.34;76516.78;5273312;28;20487;-73
2023/07/18 13:19:26;;;;;;;1.63;0.93;;;;;;;-145.79;32.25;76501.97;5269896;28;20020;-72
2023/07/18 13:21:58;;;;;;;1.77;1.08;;;;;;;-145.79;32.55;76461.69;5279321;28;20042;-72
2023/07/18 13:24:29;;;;;;;1.38;0.80;;;;;;;-145.79;32.65;76474.41;5260270;28;20032;-73
2023/07/18 13:27:00;;;;;;;1.15;0.90;;;;;;;-145.79;32.39;76444.75;5281022;28;20433;-74
2023/07/18 13:29:32;;;;;;;9.35;8.40;;;;;;;-145.79;32.17;76448.97;5274666;28;20029;-72
2023/07/18 13:32:04;;;;;;;1.55;0.85;;;;;;;-145.79;31.47;76438.38;5282995;28;20345;-72
2023/07/18 13:34:36;;;;;;;1.95;1.13;;;;;;;-145.79;30.65;76438.38;5249142;28;20034;-72
2023/07/18 13:37:07;;;;;;;1.27;1.15;;;;;;;-145.79;29.51;76423.56;5245860;28;20056;-70
2023/07/18 13:39:39;;;;;;;3.08;0.95;;;;;;;-145.79;28.88;76412.97;5293662;28;20517;-70
2023/07/18 13:42:10;;;;;;;2.35;1.40;;;;;;;-145.79;28.52;76402.38;5270103;28;20379;-70
2023/07/18 13:44:42;;;;;;;2.47;1.25;;;;;;;-145.79;28.28;76381.16;5262592;28;20051;-70
2023/07/18 13:47:13;;;;;;;3.53;2.92;;;;;;;-145.79;28.90;76381.16;5253655;28;20033;-71
2023/07/18 13:49:44;;;;;;;1.50;0.90;;;;;;;-145.79;29.30;76376.94;5261677;28;20476;-70
2023/07/18 13:52:16;;;;;;;6.35;5.75;;;;;;;-145.79;29.79;76340.91;5273014;28;20028;-71
2023/07/18 13:54:49;;;;;;;2.53;1.30;;;;;;;-145.79;30.12;76323.97;5274958;28;20061;-72
2023/07/18 13:57:20;;;;;;;3.00;1.83;;;;;;;-145.79;31.38;76290.06;5265022;28;20105;-69
2023/07/18 13:59:51;;;;;;;1.15;1.05;;;;;;;-145.79;30.38;76317.59;5273877;28;20096;-70
2023/07/18 14:02:23;;;;;;;3.00;2.70;;;;;;;-145.79;30.23;76302.75;5263883;28;20033;-71
2023/07/18 14:04:54;;;;;;;0.93;0.90;;;;;;;-145.79;30.49;76317.59;5271944;28;20022;-70
2023/07/18 14:07:26;;;;;;;1.90;1.10;;;;;;;-145.79;30.38;76338.78;5274436;28;20037;-71
2023/07/18 14:09:57;;;;;;;1.77;1.00;;;;;;;-145.79;30.62;76385.41;5291183;28;20486;-68
2023/07/18 14:12:29;;;;;;;1.27;1.10;;;;;;;-145.79;30.92;76349.38;5252096;28;20073;-70
2023/07/18 14:15:00;;;;;;;2.33;2.10;;;;;;;-145.79;30.41;76330.31;5229172;28;20960;-70
2023/07/18 14:17:32;;;;;;;2.80;1.00;;;;;;;-145.79;30.39;76343.03;5233689;28;20033;-70
2023/07/18 14:20:05;;;;;;;1.40;1.00;;;;;;;-145.79;30.36;76273.09;5289396;28;20055;-70
2023/07/18 14:22:36;;;;;;;2.60;1.67;;;;;;;-145.79;29.85;76279.47;5209278;28;20145;-70
2023/07/18 14:25:08;;;;;;;2.58;2.38;;;;;;;-145.79;29.58;76262.50;5272944;28;20051;-69
2023/07/18 14:27:39;;;;;;;5.40;4.20;;;;;;;-145.79;30.05;76249.78;5270943;28;20029;-70
2023/07/18 14:30:11;;;;;;;1.73;1.17;;;;;;;-145.79;29.83;76256.16;5273862;28;20486;-70
2023/07/18 14:32:42;;;;;;;3.38;1.30;;;;;;;-145.79;29.52;76245.56;5264569;28;20020;-70
2023/07/18 14:35:13;;;;;;;2.35;1.50;;;;;;;-145.79;29.44;76254.03;5276511;28;20112;-70
2023/07/18 14:37:45;;;;;;;3.20;1.20;;;;;;;-145.79;29.03;76232.84;5261079;28;20027;-70
2023/07/18 14:40:16;;;;;;;2.70;1.17;;;;;;;-145.79;29.30;76232.84;5277923;28;20033;-68
2023/07/18 14:42:48;;;;;;;2.10;1.23;;;;;;;-145.79;28.90;76203.16;5273196;28;20041;-71
2023/07/18 14:45:19;;;;;;;2.95;1.17;;;;;;;-145.79;29.01;76194.69;5308667;28;20057;-70
2023/07/18 14:47:50;;;;;;;3.20;1.15;;;;;;;-145.79;28.99;76211.66;5230339;28;20053;-70
2023/07/18 14:50:23;;;;;;;2.58;1.33;;;;;;;-145.79;29.33;76192.56;5265733;28;20107;-70
2023/07/18 14:52:55;;;;;;;1.52;1.00;;;;;;;-145.79;29.10;76192.56;5232428;28;20477;-69
2023/07/18 14:55:26;;;;;;;3.15;1.23;;;;;;;-145.79;28.68;76194.69;5280854;28;20090;-71
2023/07/18 14:57:57;;;;;;;1.88;1.00;;;;;;;-145.79;29.00;76179.88;5289750;28;20033;-71
2023/07/18 15:00:29;;;;;;;1.83;1.00;;;;;;;-145.79;29.06;76167.16;5262422;28;20042;-71
2023/07/18 15:03:00;;;;;;;2.03;1.38;;;;;;;-145.79;28.96;76160.78;5255386;28;20027;-71
2023/07/18 15:05:31;;;;;;;1.85;1.13;;;;;;;-145.79;28.68;76181.97;5218579;28;20034;-70
2023/07/18 15:08:03;;;;;;;1.75;1.10;;;;;;;-145.79;28.56;76181.97;5296018;28;20059;-71
2023/07/18 15:10:35;;;;;;;4.78;1.45;;;;;;;-145.79;28.32;76171.38;5247067;28;20362;-70
2023/07/18 15:13:06;;;;;;;1.90;1.15;;;;;;;-145.79;28.63;76188.34;5290147;28;20534;-70
2023/07/18 15:15:38;;;;;;;1.63;1.10;;;;;;;-145.79;28.88;76201.06;5285789;28;20379;-70
2023/07/18 15:18:10;;;;;;;2.25;1.05;;;;;;;-145.79;29.19;76186.22;5251207;28;20057;-70
2023/07/18 15:20:42;;;;;;;2.55;1.30;;;;;;;-145.79;28.79;76192.56;5286329;28;20027;-71
2023/07/18 15:23:13;;;;;;;2.15;1.38;;;;;;;-145.79;29.21;76184.09;5251081;28;20051;-71
2023/07/18 15:25:45;;;;;;;2.25;1.30;;;;;;;-145.79;28.83;76181.97;5322220;28;20019;-70
2023/07/18 15:28:17;;;;;;;1.55;1.10;;;;;;;-145.79;29.08;76188.34;5272747;28;20033;-69
2023/07/18 15:30:48;;;;;;;2.17;1.63;;;;;;;-145.79;29.10;76181.97;5273730;28;20037;-70
2023/07/18 15:33:20;;;;;;;3.40;1.20;;;;;;;-145.79;29.29;76213.75;5224072;28;20469;-70
2023/07/18 15:35:51;;;;;;;2.90;1.40;;;;;;;-145.79;29.59;76186.22;5272543;28;20030;-70
2023/07/18 15:38:23;;;;;;;2.22;1.48;;;;;;;-145.79;29.10;76186.22;5241846;28;20121;-71
2023/07/18 15:40:54;;;;;;;3.55;1.70;;;;;;;-145.79;29.33;76177.75;5263480;28;20031;-69
2023/07/18 15:43:26;;;;;;;2.80;1.30;;;;;;;-145.79;29.17;76203.16;5275449;28;20124;-69
2023/07/18 15:45:57;;;;;;;1.33;1.20;;;;;;;-145.79;29.27;76201.06;5271959;28;20399;-70
2023/07/18 15:48:28;;;;;;;2.92;1.30;;;;;;;-145.79;29.41;76203.16;5275781;28;20026;-70
2023/07/18 15:51:00;;;;;;;1.95;1.48;;;;;;;-145.79;29.25;76228.59;5275462;28;20029;-70
2023/07/18 15:53:32;;;;;;;68.18;62.15;;;;;;;-145.79;29.39;76201.06;5289103;28;20115;-71
2023/07/18 15:56:04;;;;;;;3.67;2.55;;;;;;;-145.79;29.39;76207.41;5248777;28;20087;-70
2023/07/18 15:58:35;;;;;;;1.77;1.40;;;;;;;-145.79;29.24;76224.38;5228487;28;20031;-68
2023/07/18 16:01:06;;;;;;;3.13;1.38;;;;;;;-145.79;29.46;76213.75;5221615;28;20084;-69
2023/07/18 16:03:38;;;;;;;2.50;1.85;;;;;;;-145.79;29.10;76215.88;5252106;28;20057;-70
2023/07/18 16:06:09;;;;;;;1.45;1.15;;;;;;;-145.79;29.15;76211.66;5238071;28;20454;-70
2023/07/18 16:08:40;;;;;;;2.80;1.27;;;;;;;-145.79;29.54;76211.66;5286404;28;20108;-68
2023/07/18 16:11:12;;;;;;;7.28;5.20;;;;;;;-145.79;29.30;76192.56;5262183;28;20033;-75
2023/07/18 16:13:45;;;;;;;2.83;1.20;;;;;;;-145.79;29.18;76194.69;5270233;28;20464;-75
2023/07/18 16:16:17;;;;;;;1.27;1.17;;;;;;;-145.79;29.47;76186.22;5292260;28;20023;-76
2023/07/18 16:19:03;;;;;;;2.33;1.30;;;;;;;-145.79;29.12;76173.50;5250431;28;20025;-74
2023/07/18 16:21:35;;;;;;;1.70;1.10;;;;;;;-145.79;29.21;76152.31;5291536;28;20047;-74
2023/07/18 16:24:08;;;;;;;2.35;1.20;;;;;;;-145.79;29.58;76169.25;5276212;28;20025;-75
2023/07/18 16:26:39;;;;;;;3.42;1.45;;;;;;;-145.79;29.67;76173.50;5274658;28;20033;-75
2023/07/18 16:29:10;;;;;;;2.42;1.75;;;;;;;-145.79;29.91;76148.06;5291689;28;20027;-75
2023/07/18 16:31:42;;;;;;;1.70;1.20;;;;;;;-145.79;29.64;76129.00;5265322;28;20492;-75
2023/07/18 16:34:14;;;;;;;1.42;1.00;;;;;;;-145.79;29.35;76179.88;5278194;28;20021;-74
2023/07/18 16:36:46;;;;;;;1.75;1.05;;;;;;;-145.79;29.52;76160.78;5270043;28;20046;-74
2023/07/18 16:39:17;;;;;;;1.70;1.20;;;;;;;-145.79;29.30;76152.31;5275001;28;20052;-74
2023/07/18 16:41:49;;;;;;;1.55;1.08;;;;;;;-145.79;29.67;76131.13;5270832;28;20042;-74
2023/07/18 16:44:20;;;;;;;3.72;1.52;;;;;;;-145.79;29.41;76139.59;5292688;28;20062;-74
2023/07/18 16:46:52;;;;;;;1.48;1.10;;;;;;;-145.79;29.24;76107.81;5250399;28;20492;-74
2023/07/18 16:49:23;;;;;;;1.63;1.10;;;;;;;-145.79;29.18;76112.06;5272754;28;20038;-74
2023/07/18 16:51:55;;;;;;;1.58;1.08;;;;;;;-145.79;29.47;76126.88;5276110;28;20112;-73
2023/07/18 16:54:26;;;;;;;1.92;1.15;;;;;;;-145.79;29.23;76122.66;5285433;28;20109;-74
